<?xml version="1.0" encoding="UTF-8" standalone="no" ?>
<gpx xmlns="http://www.topografix.com/GPX/1/1" xmlns:xsi="http://www.w3.org/2001/XMLSchema-instance" xsi:schemaLocation="http://www.topografix.com/GPX/1/1 http://www.topografix.com/GPX/1/1/gpx.xsd" version="1.1" creator="VisuGPX - https://www.visugpx.com">
  <metadata>
    <name>12522528-la clé des champs- le coteau rose la clé des camps</name>
  </metadata>
  <trk>
    <name><![CDATA[12522528-la clé des champs- le coteau rose la clé des camps]]></name>
    <trkseg>
      <trkpt lat="46.9547" lon="-0.89068">
        <ele>138</ele>
        <time>2021-02-08T16:55:22Z</time>
      </trkpt>
      <trkpt lat="46.95543" lon="-0.89147">
        <ele>137</ele>
        <time>2021-02-08T16:57:23Z</time>
      </trkpt>
      <trkpt lat="46.95583" lon="-0.89104">
        <ele>132</ele>
        <time>2021-02-08T16:58:29Z</time>
      </trkpt>
      <trkpt lat="46.95635" lon="-0.89132">
        <ele>130</ele>
        <time>2021-02-08T16:59:43Z</time>
      </trkpt>
      <trkpt lat="46.95688" lon="-0.89138">
        <ele>127</ele>
        <time>2021-02-08T17:00:54Z</time>
      </trkpt>
      <trkpt lat="46.95744" lon="-0.89111">
        <ele>125</ele>
        <time>2021-02-08T17:02:13Z</time>
      </trkpt>
      <trkpt lat="46.95771" lon="-0.89076">
        <ele>123</ele>
        <time>2021-02-08T17:03:01Z</time>
      </trkpt>
      <trkpt lat="46.95807" lon="-0.89044">
        <ele>121</ele>
        <time>2021-02-08T17:03:57Z</time>
      </trkpt>
      <trkpt lat="46.95843" lon="-0.89023">
        <ele>119</ele>
        <time>2021-02-08T17:04:49Z</time>
      </trkpt>
      <trkpt lat="46.95858" lon="-0.88985">
        <ele>117</ele>
        <time>2021-02-08T17:05:29Z</time>
      </trkpt>
      <trkpt lat="46.95821" lon="-0.88966">
        <ele>118</ele>
        <time>2021-02-08T17:06:21Z</time>
      </trkpt>
      <trkpt lat="46.95809" lon="-0.88935">
        <ele>118</ele>
        <time>2021-02-08T17:06:54Z</time>
      </trkpt>
      <trkpt lat="46.95808" lon="-0.88906">
        <ele>118</ele>
        <time>2021-02-08T17:07:20Z</time>
      </trkpt>
      <trkpt lat="46.95806" lon="-0.88874">
        <ele>116</ele>
        <time>2021-02-08T17:07:49Z</time>
      </trkpt>
      <trkpt lat="46.95818" lon="-0.8886">
        <ele>116</ele>
        <time>2021-02-08T17:08:10Z</time>
      </trkpt>
      <trkpt lat="46.95825" lon="-0.88824">
        <ele>115</ele>
        <time>2021-02-08T17:08:44Z</time>
      </trkpt>
      <trkpt lat="46.95832" lon="-0.88786">
        <ele>113</ele>
        <time>2021-02-08T17:09:20Z</time>
      </trkpt>
      <trkpt lat="46.95854" lon="-0.88751">
        <ele>111</ele>
        <time>2021-02-08T17:10:03Z</time>
      </trkpt>
      <trkpt lat="46.95865" lon="-0.8869">
        <ele>111</ele>
        <time>2021-02-08T17:11:01Z</time>
      </trkpt>
      <trkpt lat="46.95883" lon="-0.88658">
        <ele>112</ele>
        <time>2021-02-08T17:11:38Z</time>
      </trkpt>
      <trkpt lat="46.9593" lon="-0.88607">
        <ele>112</ele>
        <time>2021-02-08T17:12:56Z</time>
      </trkpt>
      <trkpt lat="46.95971" lon="-0.88616">
        <ele>113</ele>
        <time>2021-02-08T17:13:52Z</time>
      </trkpt>
      <trkpt lat="46.95989" lon="-0.88637">
        <ele>113</ele>
        <time>2021-02-08T17:14:22Z</time>
      </trkpt>
      <trkpt lat="46.96017" lon="-0.88696">
        <ele>113</ele>
        <time>2021-02-08T17:15:28Z</time>
      </trkpt>
      <trkpt lat="46.96036" lon="-0.88701">
        <ele>113</ele>
        <time>2021-02-08T17:15:54Z</time>
      </trkpt>
      <trkpt lat="46.96044" lon="-0.88693">
        <ele>112</ele>
        <time>2021-02-08T17:16:07Z</time>
      </trkpt>
      <trkpt lat="46.96047" lon="-0.88671">
        <ele>112</ele>
        <time>2021-02-08T17:16:27Z</time>
      </trkpt>
      <trkpt lat="46.96054" lon="-0.88646">
        <ele>113</ele>
        <time>2021-02-08T17:16:52Z</time>
      </trkpt>
      <trkpt lat="46.96066" lon="-0.8862">
        <ele>113</ele>
        <time>2021-02-08T17:17:20Z</time>
      </trkpt>
      <trkpt lat="46.96089" lon="-0.88589">
        <ele>113</ele>
        <time>2021-02-08T17:18:02Z</time>
      </trkpt>
      <trkpt lat="46.96074" lon="-0.88555">
        <ele>115</ele>
        <time>2021-02-08T17:18:39Z</time>
      </trkpt>
      <trkpt lat="46.96063" lon="-0.88529">
        <ele>117</ele>
        <time>2021-02-08T17:19:07Z</time>
      </trkpt>
      <trkpt lat="46.96056" lon="-0.88498">
        <ele>118</ele>
        <time>2021-02-08T17:19:36Z</time>
      </trkpt>
      <trkpt lat="46.96049" lon="-0.8846">
        <ele>121</ele>
        <time>2021-02-08T17:20:12Z</time>
      </trkpt>
      <trkpt lat="46.96041" lon="-0.88438">
        <ele>122</ele>
        <time>2021-02-08T17:20:35Z</time>
      </trkpt>
      <trkpt lat="46.96016" lon="-0.88393">
        <ele>123</ele>
        <time>2021-02-08T17:21:28Z</time>
      </trkpt>
      <trkpt lat="46.95991" lon="-0.88341">
        <ele>124</ele>
        <time>2021-02-08T17:22:26Z</time>
      </trkpt>
      <trkpt lat="46.95973" lon="-0.88299">
        <ele>123</ele>
        <time>2021-02-08T17:23:11Z</time>
      </trkpt>
      <trkpt lat="46.95946" lon="-0.88259">
        <ele>120</ele>
        <time>2021-02-08T17:24:02Z</time>
      </trkpt>
      <trkpt lat="46.9592" lon="-0.88205">
        <ele>119</ele>
        <time>2021-02-08T17:25:02Z</time>
      </trkpt>
      <trkpt lat="46.95909" lon="-0.88177">
        <ele>119</ele>
        <time>2021-02-08T17:25:32Z</time>
      </trkpt>
      <trkpt lat="46.95888" lon="-0.88139">
        <ele>121</ele>
        <time>2021-02-08T17:26:16Z</time>
      </trkpt>
      <trkpt lat="46.95854" lon="-0.88117">
        <ele>122</ele>
        <time>2021-02-08T17:27:06Z</time>
      </trkpt>
      <trkpt lat="46.95823" lon="-0.88092">
        <ele>122</ele>
        <time>2021-02-08T17:27:53Z</time>
      </trkpt>
      <trkpt lat="46.9581" lon="-0.88076">
        <ele>123</ele>
        <time>2021-02-08T17:28:16Z</time>
      </trkpt>
      <trkpt lat="46.95795" lon="-0.88065">
        <ele>123</ele>
        <time>2021-02-08T17:28:38Z</time>
      </trkpt>
      <trkpt lat="46.95757" lon="-0.88115">
        <ele>118</ele>
        <time>2021-02-08T17:29:46Z</time>
      </trkpt>
      <trkpt lat="46.95721" lon="-0.88044">
        <ele>122</ele>
        <time>2021-02-08T17:31:07Z</time>
      </trkpt>
      <trkpt lat="46.95702" lon="-0.88064">
        <ele>123</ele>
        <time>2021-02-08T17:31:38Z</time>
      </trkpt>
      <trkpt lat="46.95628" lon="-0.88092">
        <ele>131</ele>
        <time>2021-02-08T17:33:20Z</time>
      </trkpt>
      <trkpt lat="46.95539" lon="-0.88214">
        <ele>130</ele>
        <time>2021-02-08T17:36:03Z</time>
      </trkpt>
      <trkpt lat="46.9546" lon="-0.88246">
        <ele>126</ele>
        <time>2021-02-08T17:37:52Z</time>
      </trkpt>
      <trkpt lat="46.95421" lon="-0.88279">
        <ele>120</ele>
        <time>2021-02-08T17:38:52Z</time>
      </trkpt>
      <trkpt lat="46.9537" lon="-0.88309">
        <ele>120</ele>
        <time>2021-02-08T17:40:05Z</time>
      </trkpt>
      <trkpt lat="46.95345" lon="-0.88337">
        <ele>118</ele>
        <time>2021-02-08T17:40:47Z</time>
      </trkpt>
      <trkpt lat="46.95332" lon="-0.88353">
        <ele>117</ele>
        <time>2021-02-08T17:41:10Z</time>
      </trkpt>
      <trkpt lat="46.95334" lon="-0.88379">
        <ele>115</ele>
        <time>2021-02-08T17:41:34Z</time>
      </trkpt>
      <trkpt lat="46.95274" lon="-0.88396">
        <ele>118</ele>
        <time>2021-02-08T17:42:56Z</time>
      </trkpt>
      <trkpt lat="46.95223" lon="-0.88382">
        <ele>121</ele>
        <time>2021-02-08T17:44:05Z</time>
      </trkpt>
      <trkpt lat="46.9517" lon="-0.88364">
        <ele>121</ele>
        <time>2021-02-08T17:45:17Z</time>
      </trkpt>
      <trkpt lat="46.95133" lon="-0.88331">
        <ele>122</ele>
        <time>2021-02-08T17:46:15Z</time>
      </trkpt>
      <trkpt lat="46.95101" lon="-0.88287">
        <ele>123</ele>
        <time>2021-02-08T17:47:14Z</time>
      </trkpt>
      <trkpt lat="46.95077" lon="-0.8824">
        <ele>123</ele>
        <time>2021-02-08T17:48:07Z</time>
      </trkpt>
      <trkpt lat="46.95051" lon="-0.88188">
        <ele>122</ele>
        <time>2021-02-08T17:49:06Z</time>
      </trkpt>
      <trkpt lat="46.95021" lon="-0.88153">
        <ele>120</ele>
        <time>2021-02-08T17:49:57Z</time>
      </trkpt>
      <trkpt lat="46.94992" lon="-0.88127">
        <ele>119</ele>
        <time>2021-02-08T17:50:42Z</time>
      </trkpt>
      <trkpt lat="46.94951" lon="-0.88141">
        <ele>116</ele>
        <time>2021-02-08T17:51:39Z</time>
      </trkpt>
      <trkpt lat="46.94932" lon="-0.88133">
        <ele>115</ele>
        <time>2021-02-08T17:52:05Z</time>
      </trkpt>
      <trkpt lat="46.94901" lon="-0.88109">
        <ele>115</ele>
        <time>2021-02-08T17:52:52Z</time>
      </trkpt>
      <trkpt lat="46.94851" lon="-0.88067">
        <ele>116</ele>
        <time>2021-02-08T17:54:09Z</time>
      </trkpt>
      <trkpt lat="46.94826" lon="-0.88053">
        <ele>116</ele>
        <time>2021-02-08T17:54:44Z</time>
      </trkpt>
      <trkpt lat="46.948" lon="-0.88058">
        <ele>116</ele>
        <time>2021-02-08T17:55:19Z</time>
      </trkpt>
      <trkpt lat="46.94764" lon="-0.88061">
        <ele>117</ele>
        <time>2021-02-08T17:56:08Z</time>
      </trkpt>
      <trkpt lat="46.94744" lon="-0.88041">
        <ele>118</ele>
        <time>2021-02-08T17:56:40Z</time>
      </trkpt>
      <trkpt lat="46.94721" lon="-0.88014">
        <ele>121</ele>
        <time>2021-02-08T17:57:19Z</time>
      </trkpt>
      <trkpt lat="46.9468" lon="-0.88038">
        <ele>122</ele>
        <time>2021-02-08T17:58:18Z</time>
      </trkpt>
      <trkpt lat="46.94658" lon="-0.8803">
        <ele>124</ele>
        <time>2021-02-08T17:58:48Z</time>
      </trkpt>
      <trkpt lat="46.94644" lon="-0.88018">
        <ele>127</ele>
        <time>2021-02-08T17:59:10Z</time>
      </trkpt>
      <trkpt lat="46.94633" lon="-0.88015">
        <ele>128</ele>
        <time>2021-02-08T17:59:25Z</time>
      </trkpt>
      <trkpt lat="46.94619" lon="-0.88011">
        <ele>131</ele>
        <time>2021-02-08T17:59:44Z</time>
      </trkpt>
      <trkpt lat="46.94601" lon="-0.88012">
        <ele>133</ele>
        <time>2021-02-08T18:00:08Z</time>
      </trkpt>
      <trkpt lat="46.94583" lon="-0.88011">
        <ele>135</ele>
        <time>2021-02-08T18:00:32Z</time>
      </trkpt>
      <trkpt lat="46.94571" lon="-0.87992">
        <ele>139</ele>
        <time>2021-02-08T18:00:56Z</time>
      </trkpt>
      <trkpt lat="46.94567" lon="-0.87963">
        <ele>142</ele>
        <time>2021-02-08T18:01:23Z</time>
      </trkpt>
      <trkpt lat="46.94561" lon="-0.87935">
        <ele>145</ele>
        <time>2021-02-08T18:01:49Z</time>
      </trkpt>
      <trkpt lat="46.94554" lon="-0.87919">
        <ele>147</ele>
        <time>2021-02-08T18:02:07Z</time>
      </trkpt>
      <trkpt lat="46.94536" lon="-0.87897">
        <ele>149</ele>
        <time>2021-02-08T18:02:38Z</time>
      </trkpt>
      <trkpt lat="46.94519" lon="-0.87889">
        <ele>151</ele>
        <time>2021-02-08T18:03:02Z</time>
      </trkpt>
      <trkpt lat="46.94508" lon="-0.8795">
        <ele>147</ele>
        <time>2021-02-08T18:03:59Z</time>
      </trkpt>
      <trkpt lat="46.94549" lon="-0.88003">
        <ele>139</ele>
        <time>2021-02-08T18:05:12Z</time>
      </trkpt>
      <trkpt lat="46.94541" lon="-0.88023">
        <ele>136</ele>
        <time>2021-02-08T18:05:33Z</time>
      </trkpt>
      <trkpt lat="46.94525" lon="-0.88035">
        <ele>135</ele>
        <time>2021-02-08T18:05:57Z</time>
      </trkpt>
      <trkpt lat="46.94509" lon="-0.88039">
        <ele>135</ele>
        <time>2021-02-08T18:06:19Z</time>
      </trkpt>
      <trkpt lat="46.94494" lon="-0.88045">
        <ele>134</ele>
        <time>2021-02-08T18:06:40Z</time>
      </trkpt>
      <trkpt lat="46.94481" lon="-0.88048">
        <ele>132</ele>
        <time>2021-02-08T18:06:57Z</time>
      </trkpt>
      <trkpt lat="46.9449" lon="-0.8807">
        <ele>129</ele>
        <time>2021-02-08T18:07:21Z</time>
      </trkpt>
      <trkpt lat="46.94477" lon="-0.88071">
        <ele>128</ele>
        <time>2021-02-08T18:07:38Z</time>
      </trkpt>
      <trkpt lat="46.94469" lon="-0.88065">
        <ele>129</ele>
        <time>2021-02-08T18:07:50Z</time>
      </trkpt>
      <trkpt lat="46.94461" lon="-0.88058">
        <ele>129</ele>
        <time>2021-02-08T18:08:02Z</time>
      </trkpt>
      <trkpt lat="46.94452" lon="-0.88053">
        <ele>129</ele>
        <time>2021-02-08T18:08:15Z</time>
      </trkpt>
      <trkpt lat="46.94443" lon="-0.88035">
        <ele>131</ele>
        <time>2021-02-08T18:08:36Z</time>
      </trkpt>
      <trkpt lat="46.94433" lon="-0.88021">
        <ele>132</ele>
        <time>2021-02-08T18:08:54Z</time>
      </trkpt>
      <trkpt lat="46.94425" lon="-0.88035">
        <ele>130</ele>
        <time>2021-02-08T18:09:11Z</time>
      </trkpt>
      <trkpt lat="46.94408" lon="-0.88047">
        <ele>127</ele>
        <time>2021-02-08T18:09:36Z</time>
      </trkpt>
      <trkpt lat="46.9439" lon="-0.88026">
        <ele>128</ele>
        <time>2021-02-08T18:10:07Z</time>
      </trkpt>
      <trkpt lat="46.94382" lon="-0.88011">
        <ele>128</ele>
        <time>2021-02-08T18:10:24Z</time>
      </trkpt>
      <trkpt lat="46.94373" lon="-0.87997">
        <ele>129</ele>
        <time>2021-02-08T18:10:41Z</time>
      </trkpt>
      <trkpt lat="46.94362" lon="-0.87976">
        <ele>130</ele>
        <time>2021-02-08T18:11:06Z</time>
      </trkpt>
      <trkpt lat="46.94347" lon="-0.87947">
        <ele>131</ele>
        <time>2021-02-08T18:11:39Z</time>
      </trkpt>
      <trkpt lat="46.94341" lon="-0.87932">
        <ele>132</ele>
        <time>2021-02-08T18:11:55Z</time>
      </trkpt>
      <trkpt lat="46.94334" lon="-0.87915">
        <ele>132</ele>
        <time>2021-02-08T18:12:13Z</time>
      </trkpt>
      <trkpt lat="46.94329" lon="-0.87895">
        <ele>133</ele>
        <time>2021-02-08T18:12:32Z</time>
      </trkpt>
      <trkpt lat="46.94333" lon="-0.87863">
        <ele>136</ele>
        <time>2021-02-08T18:13:02Z</time>
      </trkpt>
      <trkpt lat="46.94324" lon="-0.87854">
        <ele>136</ele>
        <time>2021-02-08T18:13:16Z</time>
      </trkpt>
      <trkpt lat="46.94314" lon="-0.87851">
        <ele>135</ele>
        <time>2021-02-08T18:13:30Z</time>
      </trkpt>
      <trkpt lat="46.94297" lon="-0.87839">
        <ele>134</ele>
        <time>2021-02-08T18:13:55Z</time>
      </trkpt>
      <trkpt lat="46.94286" lon="-0.87833">
        <ele>133</ele>
        <time>2021-02-08T18:14:11Z</time>
      </trkpt>
      <trkpt lat="46.94268" lon="-0.87825">
        <ele>132</ele>
        <time>2021-02-08T18:14:36Z</time>
      </trkpt>
      <trkpt lat="46.94251" lon="-0.87819">
        <ele>131</ele>
        <time>2021-02-08T18:14:59Z</time>
      </trkpt>
      <trkpt lat="46.94238" lon="-0.87804">
        <ele>131</ele>
        <time>2021-02-08T18:15:21Z</time>
      </trkpt>
      <trkpt lat="46.94204" lon="-0.87778">
        <ele>131</ele>
        <time>2021-02-08T18:16:12Z</time>
      </trkpt>
      <trkpt lat="46.94186" lon="-0.87751">
        <ele>130</ele>
        <time>2021-02-08T18:16:47Z</time>
      </trkpt>
      <trkpt lat="46.9417" lon="-0.87736">
        <ele>130</ele>
        <time>2021-02-08T18:17:12Z</time>
      </trkpt>
      <trkpt lat="46.9416" lon="-0.87721">
        <ele>130</ele>
        <time>2021-02-08T18:17:31Z</time>
      </trkpt>
      <trkpt lat="46.94152" lon="-0.87699">
        <ele>131</ele>
        <time>2021-02-08T18:17:54Z</time>
      </trkpt>
      <trkpt lat="46.94183" lon="-0.87698">
        <ele>135</ele>
        <time>2021-02-08T18:18:35Z</time>
      </trkpt>
      <trkpt lat="46.94202" lon="-0.87728">
        <ele>135</ele>
        <time>2021-02-08T18:19:13Z</time>
      </trkpt>
      <trkpt lat="46.94231" lon="-0.87753">
        <ele>135</ele>
        <time>2021-02-08T18:19:58Z</time>
      </trkpt>
      <trkpt lat="46.94267" lon="-0.8778">
        <ele>137</ele>
        <time>2021-02-08T18:20:52Z</time>
      </trkpt>
      <trkpt lat="46.94273" lon="-0.87762">
        <ele>140</ele>
        <time>2021-02-08T18:21:10Z</time>
      </trkpt>
      <trkpt lat="46.94254" lon="-0.87739">
        <ele>140</ele>
        <time>2021-02-08T18:21:43Z</time>
      </trkpt>
      <trkpt lat="46.94241" lon="-0.87728">
        <ele>140</ele>
        <time>2021-02-08T18:22:03Z</time>
      </trkpt>
      <trkpt lat="46.94224" lon="-0.87707">
        <ele>140</ele>
        <time>2021-02-08T18:22:32Z</time>
      </trkpt>
      <trkpt lat="46.94207" lon="-0.87695">
        <ele>139</ele>
        <time>2021-02-08T18:22:58Z</time>
      </trkpt>
      <trkpt lat="46.94192" lon="-0.87674">
        <ele>139</ele>
        <time>2021-02-08T18:23:25Z</time>
      </trkpt>
      <trkpt lat="46.94177" lon="-0.87657">
        <ele>139</ele>
        <time>2021-02-08T18:23:51Z</time>
      </trkpt>
      <trkpt lat="46.94215" lon="-0.87672">
        <ele>143</ele>
        <time>2021-02-08T18:24:43Z</time>
      </trkpt>
      <trkpt lat="46.94246" lon="-0.87699">
        <ele>145</ele>
        <time>2021-02-08T18:25:31Z</time>
      </trkpt>
      <trkpt lat="46.94275" lon="-0.8773">
        <ele>144</ele>
        <time>2021-02-08T18:26:19Z</time>
      </trkpt>
      <trkpt lat="46.94292" lon="-0.87713">
        <ele>149</ele>
        <time>2021-02-08T18:26:47Z</time>
      </trkpt>
      <trkpt lat="46.9428" lon="-0.8769">
        <ele>150</ele>
        <time>2021-02-08T18:27:13Z</time>
      </trkpt>
      <trkpt lat="46.94273" lon="-0.87678">
        <ele>151</ele>
        <time>2021-02-08T18:27:27Z</time>
      </trkpt>
      <trkpt lat="46.94266" lon="-0.87663">
        <ele>153</ele>
        <time>2021-02-08T18:27:44Z</time>
      </trkpt>
      <trkpt lat="46.94269" lon="-0.87639">
        <ele>157</ele>
        <time>2021-02-08T18:28:06Z</time>
      </trkpt>
      <trkpt lat="46.9429" lon="-0.87649">
        <ele>158</ele>
        <time>2021-02-08T18:28:36Z</time>
      </trkpt>
      <trkpt lat="46.94318" lon="-0.87652">
        <ele>160</ele>
        <time>2021-02-08T18:29:13Z</time>
      </trkpt>
      <trkpt lat="46.9432" lon="-0.87633">
        <ele>163</ele>
        <time>2021-02-08T18:29:31Z</time>
      </trkpt>
      <trkpt lat="46.94319" lon="-0.87608">
        <ele>166</ele>
        <time>2021-02-08T18:29:53Z</time>
      </trkpt>
      <trkpt lat="46.94345" lon="-0.87592">
        <ele>169</ele>
        <time>2021-02-08T18:30:31Z</time>
      </trkpt>
      <trkpt lat="46.94367" lon="-0.8761">
        <ele>167</ele>
        <time>2021-02-08T18:31:05Z</time>
      </trkpt>
      <trkpt lat="46.94377" lon="-0.87628">
        <ele>165</ele>
        <time>2021-02-08T18:31:26Z</time>
      </trkpt>
      <trkpt lat="46.9438" lon="-0.87645">
        <ele>163</ele>
        <time>2021-02-08T18:31:42Z</time>
      </trkpt>
      <trkpt lat="46.94382" lon="-0.87678">
        <ele>160</ele>
        <time>2021-02-08T18:32:12Z</time>
      </trkpt>
      <trkpt lat="46.94383" lon="-0.87703">
        <ele>158</ele>
        <time>2021-02-08T18:32:35Z</time>
      </trkpt>
      <trkpt lat="46.94378" lon="-0.87724">
        <ele>155</ele>
        <time>2021-02-08T18:32:55Z</time>
      </trkpt>
      <trkpt lat="46.9437" lon="-0.87739">
        <ele>153</ele>
        <time>2021-02-08T18:33:12Z</time>
      </trkpt>
      <trkpt lat="46.94362" lon="-0.87757">
        <ele>151</ele>
        <time>2021-02-08T18:33:32Z</time>
      </trkpt>
      <trkpt lat="46.94367" lon="-0.87781">
        <ele>148</ele>
        <time>2021-02-08T18:33:55Z</time>
      </trkpt>
      <trkpt lat="46.94393" lon="-0.878">
        <ele>148</ele>
        <time>2021-02-08T18:34:34Z</time>
      </trkpt>
      <trkpt lat="46.94413" lon="-0.87774">
        <ele>152</ele>
        <time>2021-02-08T18:35:09Z</time>
      </trkpt>
      <trkpt lat="46.94438" lon="-0.87762">
        <ele>155</ele>
        <time>2021-02-08T18:35:44Z</time>
      </trkpt>
      <trkpt lat="46.94442" lon="-0.87775">
        <ele>154</ele>
        <time>2021-02-08T18:35:57Z</time>
      </trkpt>
      <trkpt lat="46.94434" lon="-0.87786">
        <ele>153</ele>
        <time>2021-02-08T18:36:12Z</time>
      </trkpt>
      <trkpt lat="46.94431" lon="-0.878">
        <ele>151</ele>
        <time>2021-02-08T18:36:25Z</time>
      </trkpt>
      <trkpt lat="46.94446" lon="-0.87818">
        <ele>151</ele>
        <time>2021-02-08T18:36:51Z</time>
      </trkpt>
      <trkpt lat="46.94472" lon="-0.87835">
        <ele>152</ele>
        <time>2021-02-08T18:37:29Z</time>
      </trkpt>
      <trkpt lat="46.94486" lon="-0.87856">
        <ele>152</ele>
        <time>2021-02-08T18:37:56Z</time>
      </trkpt>
      <trkpt lat="46.9451" lon="-0.87879">
        <ele>152</ele>
        <time>2021-02-08T18:38:34Z</time>
      </trkpt>
      <trkpt lat="46.94531" lon="-0.87872">
        <ele>151</ele>
        <time>2021-02-08T18:39:03Z</time>
      </trkpt>
      <trkpt lat="46.94539" lon="-0.87859">
        <ele>152</ele>
        <time>2021-02-08T18:39:19Z</time>
      </trkpt>
      <trkpt lat="46.94541" lon="-0.87835">
        <ele>154</ele>
        <time>2021-02-08T18:39:41Z</time>
      </trkpt>
      <trkpt lat="46.94552" lon="-0.87816">
        <ele>155</ele>
        <time>2021-02-08T18:40:04Z</time>
      </trkpt>
      <trkpt lat="46.94563" lon="-0.87795">
        <ele>156</ele>
        <time>2021-02-08T18:40:28Z</time>
      </trkpt>
      <trkpt lat="46.9458" lon="-0.87774">
        <ele>158</ele>
        <time>2021-02-08T18:40:57Z</time>
      </trkpt>
      <trkpt lat="46.94579" lon="-0.87742">
        <ele>160</ele>
        <time>2021-02-08T18:41:27Z</time>
      </trkpt>
      <trkpt lat="46.94581" lon="-0.87718">
        <ele>160</ele>
        <time>2021-02-08T18:41:49Z</time>
      </trkpt>
      <trkpt lat="46.94574" lon="-0.87692">
        <ele>160</ele>
        <time>2021-02-08T18:42:14Z</time>
      </trkpt>
      <trkpt lat="46.94568" lon="-0.87675">
        <ele>160</ele>
        <time>2021-02-08T18:42:32Z</time>
      </trkpt>
      <trkpt lat="46.94566" lon="-0.87663">
        <ele>160</ele>
        <time>2021-02-08T18:42:43Z</time>
      </trkpt>
      <trkpt lat="46.94553" lon="-0.87645">
        <ele>160</ele>
        <time>2021-02-08T18:43:07Z</time>
      </trkpt>
      <trkpt lat="46.94686" lon="-0.87402">
        <ele>159</ele>
        <time>2021-02-08T18:47:50Z</time>
      </trkpt>
      <trkpt lat="46.94731" lon="-0.87435">
        <ele>159</ele>
        <time>2021-02-08T18:48:58Z</time>
      </trkpt>
      <trkpt lat="46.94772" lon="-0.87482">
        <ele>155</ele>
        <time>2021-02-08T18:50:07Z</time>
      </trkpt>
      <trkpt lat="46.94806" lon="-0.87514">
        <ele>152</ele>
        <time>2021-02-08T18:51:01Z</time>
      </trkpt>
      <trkpt lat="46.94828" lon="-0.8754">
        <ele>150</ele>
        <time>2021-02-08T18:51:39Z</time>
      </trkpt>
      <trkpt lat="46.94853" lon="-0.87593">
        <ele>147</ele>
        <time>2021-02-08T18:52:37Z</time>
      </trkpt>
      <trkpt lat="46.94875" lon="-0.87633">
        <ele>144</ele>
        <time>2021-02-08T18:53:24Z</time>
      </trkpt>
      <trkpt lat="46.94878" lon="-0.87689">
        <ele>140</ele>
        <time>2021-02-08T18:54:15Z</time>
      </trkpt>
      <trkpt lat="46.94873" lon="-0.87722">
        <ele>137</ele>
        <time>2021-02-08T18:54:46Z</time>
      </trkpt>
      <trkpt lat="46.94868" lon="-0.87756">
        <ele>135</ele>
        <time>2021-02-08T18:55:18Z</time>
      </trkpt>
      <trkpt lat="46.94877" lon="-0.87794">
        <ele>134</ele>
        <time>2021-02-08T18:55:54Z</time>
      </trkpt>
      <trkpt lat="46.94881" lon="-0.87842">
        <ele>133</ele>
        <time>2021-02-08T18:56:39Z</time>
      </trkpt>
      <trkpt lat="46.9488" lon="-0.87898">
        <ele>128</ele>
        <time>2021-02-08T18:57:30Z</time>
      </trkpt>
      <trkpt lat="46.94902" lon="-0.8796">
        <ele>124</ele>
        <time>2021-02-08T18:58:33Z</time>
      </trkpt>
      <trkpt lat="46.94915" lon="-0.87991">
        <ele>123</ele>
        <time>2021-02-08T18:59:06Z</time>
      </trkpt>
      <trkpt lat="46.94953" lon="-0.88044">
        <ele>121</ele>
        <time>2021-02-08T19:00:16Z</time>
      </trkpt>
      <trkpt lat="46.94989" lon="-0.88111">
        <ele>120</ele>
        <time>2021-02-08T19:01:34Z</time>
      </trkpt>
      <trkpt lat="46.95048" lon="-0.88158">
        <ele>123</ele>
        <time>2021-02-08T19:03:04Z</time>
      </trkpt>
      <trkpt lat="46.95068" lon="-0.88205">
        <ele>123</ele>
        <time>2021-02-08T19:03:54Z</time>
      </trkpt>
      <trkpt lat="46.95097" lon="-0.88258">
        <ele>124</ele>
        <time>2021-02-08T19:04:56Z</time>
      </trkpt>
      <trkpt lat="46.95124" lon="-0.88311">
        <ele>123</ele>
        <time>2021-02-08T19:05:56Z</time>
      </trkpt>
      <trkpt lat="46.95157" lon="-0.88338">
        <ele>124</ele>
        <time>2021-02-08T19:06:47Z</time>
      </trkpt>
      <trkpt lat="46.95205" lon="-0.88361">
        <ele>123</ele>
        <time>2021-02-08T19:07:54Z</time>
      </trkpt>
      <trkpt lat="46.95254" lon="-0.88378">
        <ele>122</ele>
        <time>2021-02-08T19:09:01Z</time>
      </trkpt>
      <trkpt lat="46.95311" lon="-0.88372">
        <ele>118</ele>
        <time>2021-02-08T19:10:18Z</time>
      </trkpt>
      <trkpt lat="46.95364" lon="-0.88379">
        <ele>114</ele>
        <time>2021-02-08T19:11:29Z</time>
      </trkpt>
      <trkpt lat="46.95415" lon="-0.88385">
        <ele>112</ele>
        <time>2021-02-08T19:12:37Z</time>
      </trkpt>
      <trkpt lat="46.95456" lon="-0.88366">
        <ele>113</ele>
        <time>2021-02-08T19:13:34Z</time>
      </trkpt>
      <trkpt lat="46.95483" lon="-0.88335">
        <ele>114</ele>
        <time>2021-02-08T19:14:20Z</time>
      </trkpt>
      <trkpt lat="46.95528" lon="-0.88315">
        <ele>118</ele>
        <time>2021-02-08T19:15:23Z</time>
      </trkpt>
      <trkpt lat="46.95577" lon="-0.88328">
        <ele>117</ele>
        <time>2021-02-08T19:16:29Z</time>
      </trkpt>
      <trkpt lat="46.95601" lon="-0.88369">
        <ele>114</ele>
        <time>2021-02-08T19:17:18Z</time>
      </trkpt>
      <trkpt lat="46.95647" lon="-0.88388">
        <ele>112</ele>
        <time>2021-02-08T19:18:22Z</time>
      </trkpt>
      <trkpt lat="46.95682" lon="-0.8842">
        <ele>111</ele>
        <time>2021-02-08T19:19:17Z</time>
      </trkpt>
      <trkpt lat="46.95705" lon="-0.88444">
        <ele>111</ele>
        <time>2021-02-08T19:19:55Z</time>
      </trkpt>
      <trkpt lat="46.95727" lon="-0.8847">
        <ele>111</ele>
        <time>2021-02-08T19:20:33Z</time>
      </trkpt>
      <trkpt lat="46.95757" lon="-0.88501">
        <ele>110</ele>
        <time>2021-02-08T19:21:22Z</time>
      </trkpt>
      <trkpt lat="46.95778" lon="-0.88537">
        <ele>111</ele>
        <time>2021-02-08T19:22:05Z</time>
      </trkpt>
      <trkpt lat="46.95805" lon="-0.88561">
        <ele>111</ele>
        <time>2021-02-08T19:22:47Z</time>
      </trkpt>
      <trkpt lat="46.95859" lon="-0.88672">
        <ele>111</ele>
        <time>2021-02-08T19:24:51Z</time>
      </trkpt>
      <trkpt lat="46.95856" lon="-0.8871">
        <ele>111</ele>
        <time>2021-02-08T19:25:26Z</time>
      </trkpt>
      <trkpt lat="46.95839" lon="-0.88756">
        <ele>111</ele>
        <time>2021-02-08T19:26:14Z</time>
      </trkpt>
      <trkpt lat="46.95818" lon="-0.88804">
        <ele>114</ele>
        <time>2021-02-08T19:27:05Z</time>
      </trkpt>
      <trkpt lat="46.95811" lon="-0.88836">
        <ele>115</ele>
        <time>2021-02-08T19:27:36Z</time>
      </trkpt>
      <trkpt lat="46.95804" lon="-0.88859">
        <ele>116</ele>
        <time>2021-02-08T19:27:59Z</time>
      </trkpt>
      <trkpt lat="46.95792" lon="-0.88892">
        <ele>117</ele>
        <time>2021-02-08T19:28:33Z</time>
      </trkpt>
      <trkpt lat="46.95797" lon="-0.8893">
        <ele>118</ele>
        <time>2021-02-08T19:29:08Z</time>
      </trkpt>
      <trkpt lat="46.95804" lon="-0.88962">
        <ele>119</ele>
        <time>2021-02-08T19:29:39Z</time>
      </trkpt>
      <trkpt lat="46.95835" lon="-0.88988">
        <ele>118</ele>
        <time>2021-02-08T19:30:27Z</time>
      </trkpt>
      <trkpt lat="46.95839" lon="-0.89004">
        <ele>118</ele>
        <time>2021-02-08T19:30:42Z</time>
      </trkpt>
      <trkpt lat="46.95828" lon="-0.89024">
        <ele>119</ele>
        <time>2021-02-08T19:31:06Z</time>
      </trkpt>
      <trkpt lat="46.95788" lon="-0.89047">
        <ele>122</ele>
        <time>2021-02-08T19:32:03Z</time>
      </trkpt>
      <trkpt lat="46.95773" lon="-0.89054">
        <ele>123</ele>
        <time>2021-02-08T19:32:24Z</time>
      </trkpt>
      <trkpt lat="46.95748" lon="-0.89086">
        <ele>124</ele>
        <time>2021-02-08T19:33:08Z</time>
      </trkpt>
      <trkpt lat="46.95709" lon="-0.89115">
        <ele>126</ele>
        <time>2021-02-08T19:34:07Z</time>
      </trkpt>
      <trkpt lat="46.95667" lon="-0.8912">
        <ele>128</ele>
        <time>2021-02-08T19:35:03Z</time>
      </trkpt>
      <trkpt lat="46.95621" lon="-0.89114">
        <ele>131</ele>
        <time>2021-02-08T19:36:04Z</time>
      </trkpt>
      <trkpt lat="46.95605" lon="-0.89101">
        <ele>131</ele>
        <time>2021-02-08T19:36:29Z</time>
      </trkpt>
      <trkpt lat="46.95572" lon="-0.89091">
        <ele>132</ele>
        <time>2021-02-08T19:37:14Z</time>
      </trkpt>
      <trkpt lat="46.95552" lon="-0.89123">
        <ele>135</ele>
        <time>2021-02-08T19:37:53Z</time>
      </trkpt>
      <trkpt lat="46.95513" lon="-0.89132">
        <ele>138</ele>
        <time>2021-02-08T19:38:46Z</time>
      </trkpt>
      <trkpt lat="46.95456" lon="-0.8907">
        <ele>139</ele>
        <time>2021-02-08T19:40:21Z</time>
      </trkpt>
    </trkseg>
  </trk>
</gpx>